createdAt,value
2018-06-22T00:01:51.496Z,19.20
2018-06-22T00:04:20.772Z,19.16
2018-06-22T00:06:50.202Z,19.09
2018-06-22T00:09:19.277Z,18.99
2018-06-22T00:11:48.478Z,18.91
2018-06-22T00:14:17.701Z,18.87
2018-06-22T00:16:46.866Z,18.83
2018-06-22T00:19:16.065Z,18.94
2018-06-22T00:21:45.271Z,19.02
2018-06-22T00:24:14.749Z,19.04
2018-06-22T00:26:43.782Z,19.01
2018-06-22T00:29:12.478Z,19.00
2018-06-22T00:31:41.170Z,18.99
2018-06-22T00:34:09.872Z,18.94
2018-06-22T00:36:38.572Z,18.88
2018-06-22T00:39:09.146Z,18.83
2018-06-22T00:41:37.936Z,18.74
2018-06-22T00:44:06.630Z,18.71
2018-06-22T00:46:35.453Z,18.74
2018-06-22T00:49:04.519Z,18.75
2018-06-22T00:51:33.720Z,18.69
2018-06-22T00:54:15.933Z,18.65
2018-06-22T00:56:45.301Z,18.62
2018-06-22T00:59:14.785Z,18.59
2018-06-22T01:01:44.013Z,18.49
2018-06-22T01:04:13.213Z,18.46
2018-06-22T01:06:42.410Z,18.42
2018-06-22T01:09:13.165Z,18.38
2018-06-22T01:11:42.337Z,18.35
2018-06-22T01:14:11.536Z,18.33
2018-06-22T01:16:40.729Z,18.32
2018-06-22T01:19:09.932Z,18.44
2018-06-22T01:21:39.160Z,18.43
2018-06-22T01:24:08.325Z,18.43
2018-06-22T01:26:37.048Z,18.50
2018-06-22T01:29:10.896Z,18.54
2018-06-22T01:31:39.613Z,18.55
2018-06-22T01:34:08.529Z,18.47
2018-06-22T01:36:37.252Z,18.47
2018-06-22T01:39:08.065Z,18.53
2018-06-22T01:41:37.054Z,18.46
2018-06-22T01:44:06.324Z,18.43
2018-06-22T01:46:35.545Z,18.42
2018-06-22T01:49:04.716Z,18.38
2018-06-22T01:51:33.804Z,18.31
2018-06-22T01:54:03.128Z,18.29
2018-06-22T01:56:32.330Z,18.24
2018-06-22T01:59:01.526Z,18.22
2018-06-22T02:01:30.725Z,18.16
2018-06-22T02:03:59.966Z,18.04
2018-06-22T02:06:29.106Z,18.00
2018-06-22T02:08:57.851Z,17.94
2018-06-22T02:11:26.887Z,17.94
2018-06-22T02:13:56.084Z,17.91
2018-06-22T02:16:25.314Z,17.89
2018-06-22T02:18:54.514Z,17.89
2018-06-22T02:21:23.681Z,17.92
2018-06-22T02:23:52.879Z,17.92
2018-06-22T02:26:22.509Z,17.93
2018-06-22T02:28:51.692Z,17.90
2018-06-22T02:31:20.985Z,17.78
2018-06-22T02:33:50.413Z,17.70
2018-06-22T02:36:19.507Z,17.68
2018-06-22T02:38:48.706Z,17.73
2018-06-22T02:41:17.930Z,17.97
2018-06-22T02:43:47.085Z,17.99
2018-06-22T02:46:15.783Z,17.95
2018-06-22T02:48:44.485Z,18.07
2018-06-22T02:51:13.169Z,18.11
2018-06-22T02:53:42.194Z,18.22
2018-06-22T02:56:11.356Z,18.21
2018-06-22T02:58:40.549Z,18.17
2018-06-22T03:01:09.738Z,18.18
2018-06-22T03:03:39.040Z,18.20
2018-06-22T03:06:08.183Z,18.20
2018-06-22T03:08:37.428Z,18.23
2018-06-22T03:11:06.627Z,18.24
2018-06-22T03:13:35.759Z,18.27
2018-06-22T03:16:04.875Z,18.40
2018-06-22T03:18:33.918Z,18.53
2018-06-22T03:21:03.109Z,18.59
2018-06-22T03:23:32.326Z,18.65
2018-06-22T03:26:01.493Z,18.70
2018-06-22T03:28:30.702Z,18.81
2018-06-22T03:30:59.938Z,18.91
2018-06-22T03:33:29.090Z,19.20
2018-06-22T03:35:58.289Z,20.02
2018-06-22T03:38:27.398Z,21.07
2018-06-22T03:40:56.696Z,21.59
2018-06-22T03:43:25.931Z,21.55
2018-06-22T03:45:55.098Z,21.43
2018-06-22T03:48:24.334Z,22.17
2018-06-22T03:50:53.494Z,23.37
2018-06-22T03:53:22.698Z,24.25
2018-06-22T03:55:51.714Z,24.89
2018-06-22T03:58:20.884Z,25.75
2018-06-22T04:00:50.077Z,26.39
2018-06-22T04:03:19.272Z,27.49
2018-06-22T04:05:48.469Z,28.19
2018-06-22T04:08:17.733Z,28.55
2018-06-22T04:10:46.857Z,28.40
2018-06-22T04:13:16.154Z,28.65
2018-06-22T04:15:45.410Z,29.18
2018-06-22T04:18:14.520Z,29.95
2018-06-22T04:20:43.666Z,30.70
2018-06-22T04:23:12.952Z,31.83
2018-06-22T04:25:42.012Z,31.78
2018-06-22T04:28:10.700Z,32.52
2018-06-22T04:30:39.377Z,33.13
2018-06-22T04:33:08.065Z,33.92
2018-06-22T04:35:36.769Z,33.27
2018-06-22T04:38:05.511Z,33.74
2018-06-22T04:40:34.213Z,34.09
2018-06-22T04:43:02.916Z,34.32
2018-06-22T04:45:31.635Z,33.62
2018-06-22T04:48:00.537Z,33.58
2018-06-22T04:50:29.269Z,33.58
2018-06-22T04:52:58.114Z,33.57
2018-06-22T04:55:26.831Z,32.36
2018-06-22T04:57:55.554Z,31.95
2018-06-22T05:00:24.290Z,32.36
2018-06-22T05:02:53.071Z,32.94
2018-06-22T05:05:21.799Z,34.01
2018-06-22T05:07:50.499Z,34.54
2018-06-22T05:10:19.221Z,35.00
2018-06-22T05:12:47.916Z,35.14
2018-06-22T05:15:16.602Z,35.76
2018-06-22T05:17:45.465Z,35.59
2018-06-22T05:20:14.241Z,35.87
2018-06-22T05:22:43.009Z,35.85
2018-06-22T05:25:11.665Z,35.78
2018-06-22T05:27:40.437Z,35.68
2018-06-22T05:30:09.124Z,35.96
2018-06-22T05:32:37.816Z,36.24
2018-06-22T05:35:06.538Z,35.62
2018-06-22T05:37:35.222Z,35.90
2018-06-22T05:40:03.989Z,36.64
2018-06-22T05:42:32.697Z,36.83
2018-06-22T05:45:01.482Z,36.81
2018-06-22T05:47:30.372Z,36.05
2018-06-22T05:49:59.221Z,36.56
2018-06-22T05:52:27.932Z,37.76
2018-06-22T05:54:56.647Z,37.62
2018-06-22T05:57:25.353Z,38.28
2018-06-22T05:59:54.114Z,38.43
2018-06-22T06:02:22.863Z,38.60
2018-06-22T06:04:51.981Z,37.74
2018-06-22T06:07:21.112Z,37.98
2018-06-22T06:09:49.822Z,38.76
2018-06-22T06:12:19.057Z,39.30
2018-06-22T06:14:47.732Z,40.29
2018-06-22T06:17:16.416Z,41.07
2018-06-22T06:19:45.445Z,41.40
2018-06-22T06:22:14.133Z,41.49
2018-06-22T06:24:42.842Z,41.13
2018-06-22T06:27:11.599Z,40.01
2018-06-22T06:29:40.310Z,40.77
2018-06-22T06:32:08.986Z,40.99
2018-06-22T06:34:37.661Z,41.31
2018-06-22T06:37:06.534Z,42.21
2018-06-22T06:39:35.217Z,41.93
2018-06-22T06:42:08.849Z,42.81
2018-06-22T06:44:37.818Z,42.71
2018-06-22T06:47:06.988Z,43.15
2018-06-22T06:49:35.733Z,41.64
2018-06-22T06:52:04.436Z,41.86
2018-06-22T06:54:33.154Z,42.22
2018-06-22T06:57:02.377Z,41.74
2018-06-22T06:59:31.055Z,41.47
2018-06-22T07:01:59.733Z,42.34
2018-06-22T07:04:28.881Z,42.83
2018-06-22T07:06:57.578Z,42.58
2018-06-22T07:09:27.025Z,42.23
2018-06-22T07:11:56.089Z,41.42
2018-06-22T07:14:25.325Z,41.07
2018-06-22T07:16:54.471Z,41.74
2018-06-22T07:19:23.165Z,40.91
2018-06-22T07:21:51.898Z,41.40
2018-06-22T07:24:20.737Z,41.69
2018-06-22T07:26:49.448Z,41.25
2018-06-22T07:29:18.150Z,41.60
2018-06-22T07:31:46.849Z,40.03
2018-06-22T07:34:15.580Z,40.00
2018-06-22T07:36:44.262Z,39.11
2018-06-22T07:39:13.298Z,39.38
2018-06-22T07:41:41.981Z,39.74
2018-06-22T07:44:10.861Z,39.19
2018-06-22T07:46:39.550Z,38.73
2018-06-22T07:49:08.414Z,39.20
2018-06-22T07:51:37.108Z,39.87
2018-06-22T07:54:05.838Z,39.86
2018-06-22T07:56:35.045Z,39.91
2018-06-22T07:59:04.278Z,39.90
2018-06-22T08:01:33.540Z,39.93
2018-06-22T08:04:03.236Z,40.58
2018-06-22T08:06:32.464Z,40.67
2018-06-22T08:09:01.149Z,41.50
2018-06-22T08:11:29.944Z,41.75
2018-06-22T08:13:59.133Z,42.51
2018-06-22T08:16:28.199Z,42.57
2018-06-22T08:18:57.420Z,43.04
2018-06-22T08:21:26.593Z,42.65
2018-06-22T08:23:55.793Z,42.08
2018-06-22T08:26:24.986Z,41.57
2018-06-22T08:28:53.769Z,40.92
2018-06-22T08:31:22.492Z,41.71
2018-06-22T08:33:51.183Z,43.08
2018-06-22T08:36:20.445Z,43.19
2018-06-22T08:38:49.653Z,41.58
2018-06-22T08:41:18.846Z,41.94
2018-06-22T08:43:48.817Z,41.95
2018-06-22T08:46:17.960Z,42.18
2018-06-22T08:48:47.163Z,40.93
2018-06-22T08:51:16.437Z,40.29
2018-06-22T08:53:45.560Z,40.43
2018-06-22T08:56:14.798Z,41.13
2018-06-22T08:58:43.964Z,41.66
2018-06-22T09:01:15.048Z,41.30
2018-06-22T09:03:42.353Z,40.81
2018-06-22T09:06:11.733Z,40.40
2018-06-22T09:08:40.870Z,41.68
2018-06-22T09:11:10.042Z,42.51
2018-06-22T09:13:39.248Z,42.74
2018-06-22T09:16:07.951Z,42.63
2018-06-22T09:18:36.671Z,42.74
2018-06-22T09:21:06.255Z,42.47
2018-06-22T09:23:34.955Z,42.21
2018-06-22T09:26:03.673Z,42.87
2018-06-22T09:28:32.368Z,42.16
2018-06-22T09:31:01.076Z,41.55
2018-06-22T09:33:29.887Z,41.47
2018-06-22T09:35:59.053Z,41.26
2018-06-22T09:38:27.744Z,41.39
2018-06-22T09:40:56.534Z,41.34
2018-06-22T09:43:25.593Z,41.21
2018-06-22T09:45:54.731Z,41.79
2018-06-22T09:48:23.954Z,41.72
2018-06-22T09:50:52.672Z,40.93
2018-06-22T09:53:22.671Z,41.52
2018-06-22T09:55:52.178Z,41.70
2018-06-22T09:58:21.441Z,41.95
2018-06-22T10:00:51.559Z,42.47
2018-06-22T10:03:23.008Z,41.73
2018-06-22T10:05:53.676Z,40.40
2018-06-22T10:08:23.951Z,39.57
2018-06-22T10:10:53.257Z,39.71
2018-06-22T10:13:22.493Z,40.14
2018-06-22T10:15:53.284Z,41.29
2018-06-22T10:18:23.658Z,41.95
2018-06-22T10:20:52.631Z,42.63
2018-06-22T10:23:21.342Z,41.47
2018-06-22T10:25:50.517Z,42.05
2018-06-22T10:28:19.794Z,42.15
2018-06-22T10:30:49.107Z,42.02
2018-06-22T10:33:18.338Z,41.90
2018-06-22T10:35:47.480Z,41.71
2018-06-22T10:38:16.724Z,41.76
2018-06-22T10:40:45.667Z,41.90
2018-06-22T10:43:14.894Z,41.95
2018-06-22T10:45:44.143Z,42.21
2018-06-22T10:48:13.431Z,41.12
2018-06-22T10:50:42.584Z,39.66
2018-06-22T10:53:12.581Z,41.53
2018-06-22T10:55:41.415Z,42.13
2018-06-22T10:58:10.670Z,42.31
2018-06-22T11:00:39.785Z,42.36
2018-06-22T11:03:10.191Z,41.91
2018-06-22T11:05:39.348Z,42.72
2018-06-22T11:08:08.502Z,42.81
2018-06-22T11:10:37.800Z,43.04
2018-06-22T11:13:06.914Z,43.40
2018-06-22T11:15:36.237Z,43.12
2018-06-22T11:18:05.597Z,43.50
2018-06-22T11:20:34.701Z,44.26
2018-06-22T11:23:03.901Z,44.54
2018-06-22T11:25:34.702Z,44.13
2018-06-22T11:28:03.999Z,43.57
2018-06-22T11:30:33.029Z,43.56
2018-06-22T11:33:02.114Z,43.70
2018-06-22T11:35:31.325Z,43.39
2018-06-22T11:38:00.627Z,42.96
2018-06-22T11:40:29.852Z,40.95
2018-06-22T11:42:59.037Z,40.54
2018-06-22T11:45:28.217Z,41.92
2018-06-22T11:47:57.509Z,41.47
2018-06-22T11:50:26.714Z,40.33
2018-06-22T11:52:55.812Z,40.66
2018-06-22T11:55:24.877Z,41.42
2018-06-22T11:57:53.797Z,40.16
2018-06-22T12:00:23.012Z,39.28
2018-06-22T12:02:51.958Z,39.96
2018-06-22T12:05:21.017Z,39.71
2018-06-22T12:07:50.207Z,38.89
2018-06-22T12:10:19.557Z,38.24
2018-06-22T12:12:48.826Z,37.64
2018-06-22T12:15:18.086Z,36.86
2018-06-22T12:17:47.286Z,36.44
2018-06-22T12:20:16.678Z,36.03
2018-06-22T12:22:45.674Z,36.47
2018-06-22T12:25:14.818Z,36.79
2018-06-22T12:27:43.891Z,37.13
2018-06-22T12:30:13.075Z,36.96
2018-06-22T12:32:42.279Z,36.51
2018-06-22T12:35:11.464Z,35.64
2018-06-22T12:37:40.719Z,35.35
2018-06-22T12:40:09.884Z,34.85
2018-06-22T12:42:39.060Z,34.62
2018-06-22T12:45:08.254Z,34.13
2018-06-22T12:47:37.553Z,33.76
2018-06-22T12:50:06.998Z,33.65
2018-06-22T12:52:36.053Z,33.86
2018-06-22T12:55:05.054Z,34.09
2018-06-22T12:57:34.278Z,34.44
2018-06-22T13:00:03.474Z,34.79
2018-06-22T13:02:32.769Z,34.53
2018-06-22T13:05:01.945Z,34.62
2018-06-22T13:07:31.161Z,35.13
2018-06-22T13:10:00.463Z,34.93
2018-06-22T13:12:29.641Z,34.90
2018-06-22T13:14:58.874Z,34.75
2018-06-22T13:17:27.927Z,35.07
2018-06-22T13:19:57.232Z,35.23
2018-06-22T13:22:26.710Z,35.24
2018-06-22T13:24:55.950Z,35.00
2018-06-22T13:27:25.165Z,34.68
2018-06-22T13:29:54.240Z,34.54
2018-06-22T13:32:23.477Z,34.60
2018-06-22T13:34:52.632Z,34.63
2018-06-22T13:37:21.829Z,34.55
2018-06-22T13:39:51.418Z,34.18
2018-06-22T13:42:20.446Z,34.22
2018-06-22T13:44:49.693Z,34.11
2018-06-22T13:47:18.853Z,33.98
2018-06-22T13:49:48.026Z,33.94
2018-06-22T13:52:17.287Z,33.86
2018-06-22T13:54:46.430Z,33.78
2018-06-22T13:57:15.678Z,33.79
2018-06-22T13:59:44.829Z,33.74
2018-06-22T14:02:14.047Z,33.77
2018-06-22T14:04:48.063Z,33.76
2018-06-22T14:07:17.144Z,33.78
2018-06-22T14:09:46.317Z,33.76
2018-06-22T14:12:15.625Z,33.81
2018-06-22T14:14:44.822Z,34.13
2018-06-22T14:17:13.846Z,34.44
2018-06-22T14:19:43.025Z,34.56
2018-06-22T14:22:12.254Z,34.65
2018-06-22T14:24:41.880Z,34.66
2018-06-22T14:27:11.013Z,34.67
2018-06-22T14:29:40.414Z,34.47
2018-06-22T14:32:09.619Z,34.11
2018-06-22T14:34:39.061Z,33.71
2018-06-22T14:37:08.241Z,33.35
2018-06-22T14:39:37.443Z,32.93
2018-06-22T14:42:06.621Z,32.67
2018-06-22T14:44:36.032Z,32.38
2018-06-22T14:47:05.551Z,32.07
2018-06-22T14:49:34.669Z,31.71
2018-06-22T14:52:04.646Z,31.42
2018-06-22T14:54:39.496Z,31.01
2018-06-22T14:57:18.213Z,30.70
2018-06-22T14:59:58.103Z,30.38
2018-06-22T15:02:36.860Z,30.07
2018-06-22T15:05:13.085Z,29.76
2018-06-22T15:07:55.708Z,29.51
2018-06-22T15:10:25.245Z,29.15
2018-06-22T15:13:00.660Z,28.97
2018-06-22T15:15:36.787Z,28.66
2018-06-22T15:18:08.527Z,28.53
2018-06-22T15:20:40.850Z,28.34
2018-06-22T15:23:11.460Z,28.26
2018-06-22T15:25:50.905Z,28.14
2018-06-22T15:28:26.730Z,27.95
2018-06-22T15:30:56.060Z,27.61
2018-06-22T15:33:30.243Z,27.50
2018-06-22T15:36:04.366Z,27.25
2018-06-22T15:38:38.642Z,27.00
2018-06-22T15:43:17.673Z,26.71
2018-06-22T15:45:51.861Z,25.76
2018-06-22T15:48:26.164Z,25.53
2018-06-22T15:51:00.579Z,25.45
2018-06-22T15:53:34.724Z,25.39
2018-06-22T15:56:10.118Z,24.80
2018-06-22T15:58:39.324Z,23.56
2018-06-22T16:01:08.140Z,22.39
2018-06-22T16:03:42.061Z,21.65
2018-06-22T16:06:10.809Z,21.35
2018-06-22T16:08:39.593Z,21.06
2018-06-22T16:11:08.529Z,20.84
2018-06-22T16:13:37.253Z,20.65
2018-06-22T16:16:11.277Z,20.55
2018-06-22T16:18:45.134Z,20.59
2018-06-22T16:21:18.991Z,20.55
2018-06-22T16:23:52.897Z,20.54
2018-06-22T16:26:26.689Z,20.53
2018-06-22T16:28:55.473Z,20.59
2018-06-22T16:31:24.297Z,20.60
2018-06-22T16:33:55.738Z,20.58
2018-06-22T16:36:25.227Z,20.48
2018-06-22T16:38:54.014Z,20.53
2018-06-22T16:41:23.285Z,20.66
2018-06-22T16:43:52.585Z,20.66
2018-06-22T16:46:21.402Z,20.57
2018-06-22T16:48:50.098Z,20.46
2018-06-22T16:51:18.938Z,20.44
2018-06-22T16:53:47.659Z,20.42
2018-06-22T16:56:16.460Z,20.40
2018-06-22T16:58:45.247Z,20.26
2018-06-22T17:01:14.097Z,20.04
2018-06-22T17:03:42.849Z,19.90
2018-06-22T17:06:11.626Z,19.82
2018-06-22T17:08:45.503Z,19.85
2018-06-22T17:11:20.153Z,19.98
2018-06-22T17:13:53.986Z,20.12
2018-06-22T17:16:27.805Z,20.10
2018-06-22T17:18:58.283Z,20.13
2018-06-22T17:21:27.132Z,20.25
2018-06-22T17:23:55.862Z,20.29
2018-06-22T17:26:24.631Z,20.30
2018-06-22T17:28:53.409Z,20.29
2018-06-22T17:31:22.602Z,20.36
2018-06-22T17:33:51.490Z,20.41
2018-06-22T17:36:20.268Z,20.41
2018-06-22T17:38:49.164Z,20.40
2018-06-22T17:41:17.983Z,20.43
2018-06-22T17:43:46.772Z,20.48
2018-06-22T17:46:15.561Z,20.50
2018-06-22T17:48:44.288Z,20.48
2018-06-22T17:51:13.128Z,20.56
2018-06-22T17:53:42.152Z,20.65
2018-06-22T17:56:13.287Z,20.64
2018-06-22T17:58:44.481Z,20.76
2018-06-22T18:01:18.293Z,20.84
2018-06-22T18:03:52.246Z,20.87
2018-06-22T18:08:27.808Z,20.87
2018-06-22T18:11:01.734Z,20.83
2018-06-22T18:13:30.452Z,20.96
2018-06-22T18:15:59.305Z,20.92
2018-06-22T18:18:28.021Z,20.85
2018-06-22T18:20:57.291Z,20.81
2018-06-22T18:23:26.561Z,20.71
2018-06-22T18:25:55.659Z,20.74
2018-06-22T18:28:24.786Z,20.76
2018-06-22T18:30:54.131Z,20.66
2018-06-22T18:33:23.358Z,20.63
2018-06-22T18:35:52.575Z,20.66
2018-06-22T18:38:21.679Z,20.70
2018-06-22T18:40:50.478Z,20.63
2018-06-22T18:43:24.269Z,20.66
2018-06-22T18:45:53.096Z,20.65
2018-06-22T18:48:21.811Z,20.65
2018-06-22T18:50:50.590Z,20.53
2018-06-22T18:53:24.309Z,20.40
2018-06-22T18:55:58.210Z,20.29
2018-06-22T18:58:32.111Z,20.27
2018-06-22T19:01:06.022Z,20.32
2018-06-22T19:03:39.886Z,20.29
2018-06-22T19:06:08.651Z,20.27
2018-06-22T19:08:37.382Z,20.28
2018-06-22T19:11:06.141Z,20.27
2018-06-22T19:13:34.883Z,20.20
2018-06-22T19:16:03.689Z,20.18
2018-06-22T19:18:32.573Z,20.36
2018-06-22T19:21:01.398Z,20.31
2018-06-22T19:23:30.125Z,20.46
2018-06-22T19:25:58.866Z,20.44
2018-06-22T19:28:27.646Z,20.45
2018-06-22T19:30:56.415Z,20.39
2018-06-22T19:33:25.157Z,20.43
2018-06-22T19:35:53.881Z,20.43
2018-06-22T19:38:22.699Z,20.43
2018-06-22T19:40:51.454Z,20.37
2018-06-22T19:43:25.387Z,20.44
2018-06-22T19:45:59.341Z,20.38
2018-06-22T19:49:33.457Z,20.36
2018-06-22T19:52:07.274Z,20.31
2018-06-22T19:54:36.014Z,20.26
2018-06-22T19:57:04.721Z,20.35
2018-06-22T19:59:33.495Z,20.34
2018-06-22T20:02:02.325Z,20.41
2018-06-22T20:04:31.091Z,20.40
2018-06-22T20:06:59.860Z,20.40
2018-06-22T20:09:28.650Z,20.50
2018-06-22T20:11:57.432Z,20.55
2018-06-22T20:14:26.217Z,20.48
2018-06-22T20:16:55.113Z,20.48
2018-06-22T20:19:23.939Z,20.45
2018-06-22T20:21:52.731Z,20.46
2018-06-22T20:24:26.643Z,20.46
2018-06-22T20:26:55.395Z,20.44
2018-06-22T20:29:24.543Z,20.45
2018-06-22T20:31:53.313Z,20.55
2018-06-22T20:34:27.232Z,20.53
2018-06-22T20:37:02.303Z,20.39
2018-06-22T20:39:36.074Z,20.31
2018-06-22T20:42:09.980Z,20.24
2018-06-22T20:44:43.974Z,20.21
2018-06-22T20:47:18.021Z,20.19
2018-06-22T20:49:52.138Z,20.21
2018-06-22T20:52:21.014Z,20.18
2018-06-22T20:54:49.781Z,20.19
2018-06-22T20:57:18.607Z,20.04
2018-06-22T20:59:47.428Z,20.08
2018-06-22T21:02:16.486Z,19.95
2018-06-22T21:04:45.433Z,19.94
2018-06-22T21:07:14.272Z,19.83
2018-06-22T21:09:43.221Z,19.78
2018-06-22T21:12:11.981Z,19.69
2018-06-22T21:14:42.055Z,19.65
2018-06-22T21:17:10.865Z,19.67
2018-06-22T21:19:39.663Z,19.62
2018-06-22T21:22:09.237Z,19.57
2018-06-22T21:24:38.924Z,19.51
2018-06-22T21:27:12.763Z,19.46
2018-06-22T21:29:46.663Z,19.56
2018-06-22T21:32:20.479Z,19.67
2018-06-22T21:34:54.350Z,19.63
2018-06-22T21:37:28.173Z,19.62
2018-06-22T21:39:57.008Z,19.71
2018-06-22T21:42:25.705Z,19.70
2018-06-22T21:44:54.654Z,19.67
2018-06-22T21:47:23.449Z,19.69
2018-06-22T21:49:52.222Z,19.75
2018-06-22T21:52:21.086Z,19.65
2018-06-22T21:54:50.030Z,19.53
2018-06-22T21:57:18.772Z,19.44
2018-06-22T21:59:47.740Z,19.37
2018-06-22T22:02:16.481Z,19.34
2018-06-22T22:04:45.645Z,19.30
2018-06-22T22:07:14.362Z,19.24
2018-06-22T22:09:44.045Z,19.18
2018-06-22T22:12:12.992Z,19.27
2018-06-22T22:14:42.234Z,19.27
2018-06-22T22:17:10.982Z,19.29
2018-06-22T22:19:40.095Z,19.38
2018-06-22T22:22:09.193Z,19.46
2018-06-22T22:24:37.945Z,19.54
2018-06-22T22:27:06.670Z,19.62
2018-06-22T22:29:35.513Z,19.53
2018-06-22T22:32:04.393Z,19.48
2018-06-22T22:34:33.130Z,19.44
2018-06-22T22:37:01.908Z,19.44
2018-06-22T22:39:30.644Z,19.42
2018-06-22T22:41:59.382Z,19.41
2018-06-22T22:44:28.199Z,19.42
2018-06-22T22:46:56.939Z,19.40
2018-06-22T22:49:25.856Z,19.47
2018-06-22T22:51:54.784Z,19.52
2018-06-22T22:54:23.559Z,19.51
2018-06-22T22:56:52.319Z,19.53
2018-06-22T22:59:21.110Z,19.55
2018-06-22T23:01:49.882Z,19.62
2018-06-22T23:04:18.678Z,19.71
2018-06-22T23:06:53.098Z,19.71
2018-06-22T23:09:22.007Z,19.78
2018-06-22T23:11:51.120Z,19.82
2018-06-22T23:14:19.868Z,19.90
2018-06-22T23:16:48.601Z,19.96
2018-06-22T23:19:17.351Z,20.01
2018-06-22T23:21:46.149Z,20.03
2018-06-22T23:24:14.918Z,19.92
2018-06-22T23:26:43.670Z,19.90
2018-06-22T23:29:12.613Z,19.89
2018-06-22T23:31:41.438Z,19.78
2018-06-22T23:34:10.236Z,19.73
2018-06-22T23:36:38.972Z,19.70
2018-06-22T23:39:09.178Z,19.64
2018-06-22T23:41:38.034Z,19.56
2018-06-22T23:44:06.762Z,19.50
2018-06-22T23:46:35.498Z,19.43
2018-06-22T23:49:04.382Z,19.24
2018-06-22T23:51:33.098Z,19.26
2018-06-22T23:54:01.845Z,19.07
2018-06-22T23:56:30.597Z,19.07
2018-06-22T23:58:59.323Z,18.85
